createdAt,value
2022-10-07T00:01:11.201Z,99065.16
2022-10-07T00:03:40.511Z,99051.41
2022-10-07T00:06:13.590Z,99053.65
2022-10-07T00:08:47.089Z,99041.90
2022-10-07T00:11:27.324Z,99040.41
2022-10-07T00:13:58.621Z,99047.00
2022-10-07T00:16:32.858Z,99045.29
2022-10-07T00:19:04.126Z,99045.66
2022-10-07T00:21:35.088Z,99048.66
2022-10-07T00:24:05.269Z,99055.34
2022-10-07T00:26:35.600Z,99060.91
2022-10-07T00:29:06.825Z,99065.77
2022-10-07T00:31:37.155Z,99066.23
2022-10-07T00:34:05.742Z,99064.42
2022-10-07T00:36:37.641Z,99063.16
2022-10-07T00:39:09.259Z,99061.60
2022-10-07T00:41:50.396Z,99056.88
2022-10-07T00:44:36.935Z,99055.34
2022-10-07T00:47:24.479Z,99059.23
2022-10-07T00:50:07.088Z,99063.25
2022-10-07T00:52:40.666Z,99058.77
2022-10-07T00:55:12.940Z,99054.99
2022-10-07T00:57:42.623Z,99055.63
2022-10-07T01:00:11.794Z,99055.12
2022-10-07T01:02:40.423Z,99056.21
2022-10-07T01:05:10.530Z,99058.16
2022-10-07T01:07:39.246Z,99057.77
2022-10-07T01:10:09.509Z,99056.65
2022-10-07T01:12:45.038Z,99058.79
2022-10-07T01:15:30.299Z,99052.34
2022-10-07T01:18:06.780Z,99050.55
2022-10-07T01:20:45.555Z,99049.28
2022-10-07T01:23:34.960Z,99045.02
2022-10-07T01:26:11.226Z,99041.66
2022-10-07T01:29:05.416Z,99046.08
2022-10-07T01:31:38.575Z,99045.14
2022-10-07T01:34:09.239Z,99042.61
2022-10-07T01:36:38.388Z,99042.45
2022-10-07T01:39:12.986Z,99042.38
2022-10-07T01:41:41.725Z,99040.86
2022-10-07T01:44:12.800Z,99039.39
2022-10-07T01:46:42.981Z,99036.10
2022-10-07T01:49:11.978Z,99029.77
2022-10-07T01:51:55.033Z,99036.21
2022-10-07T01:54:41.696Z,99034.00
2022-10-07T01:57:12.634Z,99035.04
2022-10-07T01:59:55.600Z,99032.08
2022-10-07T02:02:32.732Z,99030.05
2022-10-07T02:05:13.737Z,99020.38
2022-10-07T02:07:59.771Z,99021.51
2022-10-07T02:10:34.539Z,99020.87
2022-10-07T02:13:12.640Z,99024.58
2022-10-07T02:15:49.810Z,99028.41
2022-10-07T02:18:20.646Z,99026.60
2022-10-07T02:20:52.144Z,99029.07
2022-10-07T02:23:25.440Z,99034.40
2022-10-07T02:25:55.321Z,99035.71
2022-10-07T02:28:25.650Z,99037.36
2022-10-07T02:30:59.742Z,99037.71
2022-10-07T02:33:30.936Z,99040.58
2022-10-07T02:36:13.491Z,99042.03
2022-10-07T02:38:42.563Z,99040.77
2022-10-07T02:41:32.669Z,99039.88
2022-10-07T02:44:26.066Z,99042.65
2022-10-07T02:47:09.603Z,99044.29
2022-10-07T02:49:42.210Z,99045.58
2022-10-07T02:52:18.186Z,99042.23
2022-10-07T02:54:54.504Z,99045.85
2022-10-07T02:57:24.825Z,99048.98
2022-10-07T02:59:55.134Z,99052.81
2022-10-07T03:02:49.584Z,99048.05
2022-10-07T03:05:20.172Z,99042.50
2022-10-07T03:07:52.957Z,99037.55
2022-10-07T03:10:21.666Z,99037.33
2022-10-07T03:12:50.456Z,99041.46
2022-10-07T03:15:18.483Z,99044.80
2022-10-07T03:17:47.359Z,99047.23
2022-10-07T03:20:16.303Z,99046.35
2022-10-07T03:22:45.504Z,99042.40
2022-10-07T03:25:15.541Z,99036.93
2022-10-07T03:27:44.347Z,99032.75
2022-10-07T03:30:12.811Z,99029.77
2022-10-07T03:32:41.587Z,99027.69
2022-10-07T03:35:10.704Z,99030.62
2022-10-07T03:37:39.601Z,99033.52
2022-10-07T03:40:10.009Z,99029.05
2022-10-07T03:42:38.306Z,99029.64
2022-10-07T03:45:09.222Z,99030.59
2022-10-07T03:47:38.354Z,99031.43
2022-10-07T03:50:08.943Z,99030.19
2022-10-07T03:52:37.112Z,99027.08
2022-10-07T03:55:05.728Z,99030.85
2022-10-07T03:57:58.447Z,99035.27
2022-10-07T04:00:28.975Z,99032.13
2022-10-07T04:02:58.539Z,99030.07
2022-10-07T04:05:26.635Z,99026.33
2022-10-07T04:07:55.494Z,99026.10
2022-10-07T04:10:24.929Z,99016.98
2022-10-07T04:12:53.114Z,99014.91
2022-10-07T04:15:21.544Z,99014.05
2022-10-07T04:17:54.132Z,99010.31
2022-10-07T04:20:22.509Z,99013.13
2022-10-07T04:22:50.440Z,99011.54
2022-10-07T04:25:33.909Z,99012.82
2022-10-07T04:28:07.445Z,99011.84
2022-10-07T04:30:40.260Z,99016.80
2022-10-07T04:33:09.075Z,99012.69
2022-10-07T04:35:38.983Z,99012.63
2022-10-07T04:38:12.069Z,99013.66
2022-10-07T04:40:48.748Z,99011.94
2022-10-07T04:43:23.723Z,99010.67
2022-10-07T04:46:09.449Z,99006.23
2022-10-07T04:48:44.362Z,99004.21
2022-10-07T04:51:17.065Z,99003.70
2022-10-07T04:53:56.756Z,98996.25
2022-10-07T04:56:31.626Z,98995.52
2022-10-07T04:59:00.811Z,98997.00
2022-10-07T05:01:31.253Z,98995.11
2022-10-07T05:04:00.506Z,98996.48
2022-10-07T05:06:28.645Z,98996.99
2022-10-07T05:08:58.709Z,98994.39
2022-10-07T05:11:28.699Z,98992.16
2022-10-07T05:14:05.100Z,98993.60
2022-10-07T05:16:33.600Z,98990.05
2022-10-07T05:19:02.953Z,98991.94
2022-10-07T05:21:31.247Z,98994.90
2022-10-07T05:24:01.859Z,98993.48
2022-10-07T05:26:34.409Z,98996.94
2022-10-07T05:29:04.439Z,98995.24
2022-10-07T05:31:38.260Z,98993.13
2022-10-07T05:34:09.006Z,98992.35
2022-10-07T05:36:40.436Z,98992.85
2022-10-07T05:39:09.914Z,98996.23
2022-10-07T05:42:03.169Z,98992.21
2022-10-07T05:44:37.919Z,98990.59
2022-10-07T05:47:06.914Z,98993.71
2022-10-07T05:49:36.396Z,98993.67
2022-10-07T05:52:05.939Z,98994.63
2022-10-07T05:54:34.397Z,98998.56
2022-10-07T05:57:11.282Z,99000.11
2022-10-07T05:59:39.491Z,98991.94
2022-10-07T06:02:13.947Z,98994.17
2022-10-07T06:04:48.995Z,98992.38
2022-10-07T06:07:21.352Z,98992.84
2022-10-07T06:10:10.601Z,98991.73
2022-10-07T06:12:57.569Z,98992.45
2022-10-07T06:15:25.852Z,98994.45
2022-10-07T06:17:54.528Z,98990.56
2022-10-07T06:20:23.211Z,98991.34
2022-10-07T06:22:55.597Z,98990.33
2022-10-07T06:25:23.833Z,98992.18
2022-10-07T06:27:56.172Z,98990.77
2022-10-07T06:30:25.932Z,98988.80
2022-10-07T06:32:54.623Z,98988.93
2022-10-07T06:35:22.999Z,98994.92
2022-10-07T06:37:51.918Z,98989.98
2022-10-07T06:40:20.486Z,98989.92
2022-10-07T06:42:50.999Z,98988.17
2022-10-07T06:45:34.191Z,98992.56
2022-10-07T06:48:02.677Z,98990.95
2022-10-07T06:50:31.984Z,98992.36
2022-10-07T06:53:01.633Z,98991.18
2022-10-07T06:55:33.272Z,98995.45
2022-10-07T06:58:10.601Z,99000.27
2022-10-07T07:00:40.582Z,99001.12
2022-10-07T07:03:10.524Z,99007.99
2022-10-07T07:05:44.428Z,99012.44
2022-10-07T07:08:16.939Z,99011.11
2022-10-07T07:10:47.797Z,99008.48
2022-10-07T07:13:26.158Z,99009.11
2022-10-07T07:16:00.800Z,99006.06
2022-10-07T07:18:32.560Z,99003.28
2022-10-07T07:21:07.859Z,99000.65
2022-10-07T07:23:36.856Z,98997.20
2022-10-07T07:26:05.591Z,98996.42
2022-10-07T07:28:34.037Z,98989.07
2022-10-07T07:31:10.556Z,98983.98
2022-10-07T07:33:40.164Z,98985.73
2022-10-07T07:36:16.664Z,98984.85
2022-10-07T07:38:58.006Z,98979.41
2022-10-07T07:41:29.849Z,98981.33
2022-10-07T07:44:00.757Z,98980.19
2022-10-07T07:46:34.841Z,98975.98
2022-10-07T07:49:04.296Z,98973.83
2022-10-07T07:51:34.143Z,98971.58
2022-10-07T07:54:03.677Z,98971.45
2022-10-07T07:56:32.807Z,98974.02
2022-10-07T07:59:02.207Z,98976.72
2022-10-07T08:01:34.353Z,98973.70
2022-10-07T08:04:04.246Z,98975.45
2022-10-07T08:06:34.869Z,98974.30
2022-10-07T08:09:04.546Z,98969.53
2022-10-07T08:11:36.104Z,98973.59
2022-10-07T08:14:04.797Z,98971.13
2022-10-07T08:16:35.130Z,98976.63
2022-10-07T08:19:04.542Z,98973.98
2022-10-07T08:21:33.288Z,98967.77
2022-10-07T08:24:05.542Z,98958.57
2022-10-07T08:26:38.304Z,98966.66
2022-10-07T08:29:08.561Z,98956.05
2022-10-07T08:31:39.748Z,98949.19
2022-10-07T08:34:11.681Z,98947.39
2022-10-07T08:36:46.704Z,98948.27
2022-10-07T08:39:16.744Z,98943.98
2022-10-07T08:41:57.696Z,98939.45
2022-10-07T08:44:36.794Z,98935.01
2022-10-07T08:47:52.994Z,98937.77
2022-10-07T08:51:08.227Z,98934.46
2022-10-07T08:53:38.066Z,98930.52
2022-10-07T08:58:22.299Z,98926.89
2022-10-07T09:01:11.184Z,98928.48
2022-10-07T09:04:15.257Z,98922.36
2022-10-07T09:07:07.596Z,98918.80
2022-10-07T09:09:41.534Z,98916.37
2022-10-07T09:12:19.422Z,98903.27
2022-10-07T09:14:50.727Z,98901.55
2022-10-07T09:17:36.822Z,98907.00
2022-10-07T09:20:27.191Z,98903.17
2022-10-07T09:22:59.534Z,98899.02
2022-10-07T09:25:31.846Z,98897.16
2022-10-07T09:28:02.482Z,98894.47
2022-10-07T09:30:32.758Z,98888.95
2022-10-07T09:33:03.257Z,98887.00
2022-10-07T09:35:32.168Z,98881.48
2022-10-07T09:38:03.528Z,98881.37
2022-10-07T09:40:59.426Z,98879.41
2022-10-07T09:43:28.115Z,98877.44
2022-10-07T09:45:57.725Z,98872.51
2022-10-07T09:48:30.527Z,98866.57
2022-10-07T09:51:27.111Z,98864.05
2022-10-07T09:54:03.984Z,98862.06
2022-10-07T09:56:42.940Z,98856.09
2022-10-07T09:59:29.809Z,98854.11
2022-10-07T10:02:22.778Z,98848.11
2022-10-07T10:04:56.693Z,98841.81
2022-10-07T10:07:33.047Z,98836.67
2022-10-07T10:10:16.966Z,98832.92
2022-10-07T10:12:48.467Z,98826.70
2022-10-07T10:15:25.012Z,98828.40
2022-10-07T10:17:56.973Z,98816.23
2022-10-07T10:20:36.507Z,98809.31
2022-10-07T10:23:33.375Z,98808.54
2022-10-07T10:26:31.155Z,98804.40
2022-10-07T10:29:37.114Z,98798.24
2022-10-07T10:32:08.254Z,98794.44
2022-10-07T10:34:57.960Z,98787.13
2022-10-07T10:38:04.634Z,98787.10
2022-10-07T10:40:38.214Z,98779.83
2022-10-07T10:43:11.393Z,98776.70
2022-10-07T10:46:03.645Z,98775.39
2022-10-07T10:48:43.897Z,98777.70
2022-10-07T10:51:34.990Z,98768.34
2022-10-07T10:54:22.826Z,98759.19
2022-10-07T10:57:01.229Z,98760.95
2022-10-07T10:59:57.325Z,98753.25
2022-10-07T11:02:31.540Z,98748.84
2022-10-07T11:05:15.382Z,98747.64
2022-10-07T11:08:26.504Z,98747.77
2022-10-07T11:11:07.209Z,98741.92
2022-10-07T11:13:54.598Z,98744.10
2022-10-07T11:16:37.374Z,98733.98
2022-10-07T11:19:11.947Z,98729.52
2022-10-07T11:22:00.916Z,98733.00
2022-10-07T11:24:44.997Z,98727.40
2022-10-07T11:27:34.032Z,98724.38
2022-10-07T11:30:15.661Z,98719.22
2022-10-07T11:32:59.529Z,98715.38
2022-10-07T11:35:59.557Z,98712.55
2022-10-07T11:38:34.072Z,98709.25
2022-10-07T11:41:23.727Z,98717.33
2022-10-07T11:44:01.111Z,98702.21
2022-10-07T11:46:36.974Z,98699.26
2022-10-07T11:49:18.904Z,98697.73
2022-10-07T11:52:06.940Z,98694.35
2022-10-07T11:55:03.360Z,98688.02
2022-10-07T11:57:36.142Z,98688.79
2022-10-07T12:00:22.795Z,98687.23
2022-10-07T12:02:51.686Z,98687.73
2022-10-07T12:05:35.303Z,98686.20
2022-10-07T12:08:37.024Z,98682.55
2022-10-07T12:11:27.408Z,98684.96
2022-10-07T12:14:16.434Z,98687.03
2022-10-07T12:16:55.276Z,98682.91
2022-10-07T12:19:24.209Z,98684.90
2022-10-07T12:22:05.825Z,98682.71
2022-10-07T12:24:36.756Z,98683.17
2022-10-07T12:27:22.913Z,98676.65
2022-10-07T12:30:09.379Z,98674.98
2022-10-07T12:32:53.228Z,98674.25
2022-10-07T12:35:34.732Z,98670.25
2022-10-07T12:38:22.150Z,98665.43
2022-10-07T12:41:00.418Z,98659.75
2022-10-07T12:43:49.925Z,98659.95
2022-10-07T12:46:37.915Z,98656.27
2022-10-07T12:49:38.723Z,98655.89
2022-10-07T12:52:14.488Z,98656.30
2022-10-07T12:54:54.777Z,98654.13
2022-10-07T12:57:26.984Z,98650.29
2022-10-07T13:00:08.626Z,98650.69
2022-10-07T13:03:19.328Z,98649.58
2022-10-07T13:05:59.905Z,98645.42
2022-10-07T13:08:43.450Z,98637.43
2022-10-07T13:11:16.106Z,98637.77
2022-10-07T13:14:11.441Z,98633.53
2022-10-07T13:17:19.689Z,98614.97
2022-10-07T13:19:51.106Z,98625.39
2022-10-07T13:22:21.676Z,98624.61
2022-10-07T13:25:03.635Z,98619.78
2022-10-07T13:27:37.437Z,98617.21
2022-10-07T13:30:08.519Z,98620.63
2022-10-07T13:32:37.010Z,98619.89
2022-10-07T13:35:38.756Z,98618.52
2022-10-07T13:38:24.273Z,98613.37
2022-10-07T13:40:57.726Z,98616.48
2022-10-07T13:43:30.500Z,98615.37
2022-10-07T13:46:00.539Z,98610.84
2022-10-07T13:48:34.705Z,98608.73
2022-10-07T13:51:05.494Z,98607.95
2022-10-07T13:53:36.624Z,98595.98
2022-10-07T13:56:19.534Z,98602.48
2022-10-07T13:58:48.889Z,98598.28
2022-10-07T14:01:27.830Z,98597.65
2022-10-07T14:04:14.917Z,98595.77
2022-10-07T14:07:12.354Z,98590.33
2022-10-07T14:09:49.126Z,98589.42
2022-10-07T14:12:21.118Z,98586.77
2022-10-07T14:14:56.055Z,98586.83
2022-10-07T14:17:41.396Z,98588.05
2022-10-07T14:20:22.769Z,98584.97
2022-10-07T14:22:54.921Z,98585.53
2022-10-07T14:25:31.859Z,98580.46
2022-10-07T14:28:16.940Z,98581.05
2022-10-07T14:31:26.335Z,98583.61
2022-10-07T14:34:34.142Z,98584.54
2022-10-07T14:37:19.993Z,98586.25
2022-10-07T14:39:51.198Z,98587.09
2022-10-07T14:42:36.088Z,98585.73
2022-10-07T14:45:08.252Z,98586.02
2022-10-07T14:47:39.495Z,98581.63
2022-10-07T14:50:08.208Z,98579.40
2022-10-07T14:52:44.816Z,98577.15
2022-10-07T14:55:23.820Z,98579.95
2022-10-07T14:57:55.390Z,98580.90
2022-10-07T15:00:27.828Z,98576.52
2022-10-07T15:02:57.069Z,98579.45
2022-10-07T15:05:46.243Z,98579.35
2022-10-07T15:08:16.616Z,98585.80
2022-10-07T15:10:47.695Z,98588.10
2022-10-07T15:13:16.477Z,98582.40
2022-10-07T15:15:46.988Z,98580.90
2022-10-07T15:18:17.526Z,98577.65
2022-10-07T15:20:46.190Z,98572.14
2022-10-07T15:23:16.254Z,98570.70
2022-10-07T15:25:45.670Z,98570.70
2022-10-07T15:28:15.883Z,98568.69
2022-10-07T15:30:46.280Z,98567.43
2022-10-07T15:33:18.878Z,98569.15
2022-10-07T15:35:54.469Z,98570.23
2022-10-07T15:38:28.662Z,98569.38
2022-10-07T15:41:01.631Z,98570.16
2022-10-07T15:43:32.384Z,98572.18
2022-10-07T15:46:03.254Z,98579.09
2022-10-07T15:48:37.497Z,98574.84
2022-10-07T15:51:12.721Z,98574.14
2022-10-07T15:53:45.603Z,98576.98
2022-10-07T15:56:13.841Z,98578.34
2022-10-07T15:58:41.911Z,98588.23
2022-10-07T16:01:11.101Z,98590.52
2022-10-07T16:03:55.556Z,98584.13
2022-10-07T16:06:25.865Z,98581.45
2022-10-07T16:08:56.772Z,98603.75
2022-10-07T16:11:26.964Z,98599.27
2022-10-07T16:14:07.525Z,98609.66
2022-10-07T16:16:43.702Z,98621.29
2022-10-07T16:19:15.778Z,98625.75
2022-10-07T16:21:46.276Z,98631.51
2022-10-07T16:24:22.744Z,98638.27
2022-10-07T16:26:51.271Z,98632.95
2022-10-07T16:29:42.174Z,98632.70
2022-10-07T16:32:12.123Z,98618.95
2022-10-07T16:34:45.458Z,98623.98
2022-10-07T16:37:16.143Z,98616.42
2022-10-07T16:39:44.419Z,98634.32
2022-10-07T16:42:13.024Z,98635.30
2022-10-07T16:44:50.751Z,98647.41
2022-10-07T16:47:19.093Z,98648.55
2022-10-07T16:49:48.927Z,98649.29
2022-10-07T16:52:17.257Z,98641.23
2022-10-07T16:54:45.595Z,98635.15
2022-10-07T16:57:14.772Z,98627.95
2022-10-07T16:59:44.437Z,98627.56
2022-10-07T17:02:12.548Z,98628.19
2022-10-07T17:04:40.650Z,98620.83
2022-10-07T17:07:09.074Z,98622.75
2022-10-07T17:09:39.606Z,98627.34
2022-10-07T17:12:09.432Z,98628.19
2022-10-07T17:14:39.048Z,98630.60
2022-10-07T17:17:10.549Z,98630.65
2022-10-07T17:19:40.470Z,98630.77
2022-10-07T17:22:10.722Z,98636.59
2022-10-07T17:24:39.180Z,98632.91
2022-10-07T17:27:09.271Z,98635.98
2022-10-07T17:29:38.711Z,98636.63
2022-10-07T17:32:07.719Z,98634.53
2022-10-07T17:34:36.740Z,98633.38
2022-10-07T17:37:05.561Z,98630.22
2022-10-07T17:39:33.671Z,98632.55
2022-10-07T17:42:02.393Z,98625.95
2022-10-07T17:44:32.242Z,98608.77
2022-10-07T17:47:05.833Z,98602.78
2022-10-07T17:49:35.104Z,98594.88
2022-10-07T17:52:04.720Z,98599.95
2022-10-07T17:54:33.152Z,98591.67
2022-10-07T17:57:01.342Z,98595.23
2022-10-07T17:59:29.452Z,98611.73
2022-10-07T18:01:58.388Z,98609.12
2022-10-07T18:04:26.561Z,98605.38
2022-10-07T18:06:54.840Z,98610.47
2022-10-07T18:09:24.413Z,98616.02
2022-10-07T18:12:11.157Z,98617.62
2022-10-07T18:14:59.101Z,98615.70
2022-10-07T18:17:27.787Z,98604.80
2022-10-07T18:19:56.078Z,98603.95
2022-10-07T18:22:26.883Z,98611.60
2022-10-07T18:24:58.991Z,98615.73
2022-10-07T18:27:28.071Z,98629.66
2022-10-07T18:29:58.476Z,98631.30
2022-10-07T18:32:26.696Z,98628.40
2022-10-07T18:34:57.391Z,98632.52
2022-10-07T18:37:25.994Z,98628.92
2022-10-07T18:39:55.829Z,98627.61
2022-10-07T18:42:30.738Z,98633.77
2022-10-07T18:44:59.591Z,98634.38
2022-10-07T18:47:27.732Z,98620.63
2022-10-07T18:49:57.251Z,98610.44
2022-10-07T18:52:25.908Z,98614.52
2022-10-07T18:54:54.016Z,98623.44
2022-10-07T18:57:22.502Z,98622.13
2022-10-07T18:59:51.772Z,98621.45
2022-10-07T19:02:20.477Z,98619.11
2022-10-07T19:04:49.000Z,98626.12
2022-10-07T19:07:17.243Z,98630.58
2022-10-07T19:09:45.848Z,98633.33
2022-10-07T19:12:33.742Z,98639.39
2022-10-07T19:15:02.521Z,98641.30
2022-10-07T19:17:30.977Z,98638.61
2022-10-07T19:20:04.203Z,98638.05
2022-10-07T19:22:32.407Z,98647.26
2022-10-07T19:25:19.436Z,98646.98
2022-10-07T19:27:48.288Z,98640.45
2022-10-07T19:30:18.193Z,98641.02
2022-10-07T19:32:47.160Z,98649.51
2022-10-07T19:35:15.441Z,98650.84
2022-10-07T19:37:45.609Z,98656.90
2022-10-07T19:40:17.540Z,98657.21
2022-10-07T19:42:45.838Z,98659.39
2022-10-07T19:45:15.749Z,98658.59
2022-10-07T19:47:45.175Z,98662.80
2022-10-07T19:50:20.949Z,98661.46
2022-10-07T19:52:50.754Z,98661.77
2022-10-07T19:55:19.413Z,98664.44
2022-10-07T19:57:48.195Z,98664.73
2022-10-07T20:00:16.817Z,98667.40
2022-10-07T20:02:46.317Z,98666.49
2022-10-07T20:05:16.974Z,98660.64
2022-10-07T20:07:48.545Z,98663.25
2022-10-07T20:10:18.193Z,98659.96
2022-10-07T20:12:47.196Z,98660.40
2022-10-07T20:15:16.095Z,98657.98
2022-10-07T20:17:48.134Z,98654.70
2022-10-07T20:20:17.349Z,98655.16
2022-10-07T20:22:49.206Z,98659.20
2022-10-07T20:25:18.740Z,98660.84
2022-10-07T20:27:49.336Z,98659.50
2022-10-07T20:30:18.475Z,98656.96
2022-10-07T20:32:47.066Z,98656.51
2022-10-07T20:35:16.072Z,98659.05
2022-10-07T20:37:44.816Z,98658.94
2022-10-07T20:40:40.484Z,98655.91
2022-10-07T20:43:09.303Z,98654.09
2022-10-07T20:45:56.423Z,98652.93
2022-10-07T20:48:29.176Z,98648.62
2022-10-07T20:50:57.419Z,98646.09
2022-10-07T20:53:25.658Z,98640.98
2022-10-07T20:55:53.968Z,98644.14
2022-10-07T20:58:22.689Z,98647.23
2022-10-07T21:00:50.874Z,98644.53
2022-10-07T21:03:19.832Z,98642.31
2022-10-07T21:05:48.125Z,98643.30
2022-10-07T21:08:16.229Z,98644.83
2022-10-07T21:10:44.354Z,98643.62
2022-10-07T21:13:12.380Z,98644.52
2022-10-07T21:15:41.553Z,98648.86
2022-10-07T21:18:10.260Z,98643.33
2022-10-07T21:20:38.408Z,98639.98
2022-10-07T21:23:08.301Z,98640.39
2022-10-07T21:25:36.508Z,98643.38
2022-10-07T21:28:05.449Z,98643.55
2022-10-07T21:30:33.617Z,98639.86
2022-10-07T21:33:04.009Z,98636.86
2022-10-07T21:35:34.415Z,98633.70
2022-10-07T21:38:02.540Z,98633.54
2022-10-07T21:40:31.613Z,98626.96
2022-10-07T21:42:59.866Z,98625.09
2022-10-07T21:45:28.637Z,98622.84
2022-10-07T21:47:59.114Z,98620.38
2022-10-07T21:50:27.193Z,98617.59
2022-10-07T21:52:57.908Z,98619.52
2022-10-07T21:55:25.936Z,98619.13
2022-10-07T21:57:54.247Z,98624.84
2022-10-07T22:00:22.235Z,98620.90
2022-10-07T22:02:53.355Z,98620.92
2022-10-07T22:05:21.537Z,98621.22
2022-10-07T22:08:07.976Z,98616.67
2022-10-07T22:10:36.050Z,98613.23
2022-10-07T22:13:04.156Z,98614.05
2022-10-07T22:15:37.382Z,98612.60
2022-10-07T22:18:05.846Z,98615.65
2022-10-07T22:20:36.646Z,98612.70
2022-10-07T22:23:05.651Z,98616.70
2022-10-07T22:25:34.464Z,98608.09
2022-10-07T22:28:03.919Z,98604.80
2022-10-07T22:30:31.994Z,98604.02
2022-10-07T22:33:00.420Z,98600.68
2022-10-07T22:35:30.367Z,98595.74
2022-10-07T22:37:58.809Z,98596.05
2022-10-07T22:40:27.110Z,98599.56
2022-10-07T22:42:55.088Z,98595.85
2022-10-07T22:45:23.255Z,98591.68
2022-10-07T22:47:52.150Z,98590.80
2022-10-07T22:50:20.144Z,98588.32
2022-10-07T22:52:49.284Z,98588.08
2022-10-07T22:55:18.214Z,98580.77
2022-10-07T22:57:50.417Z,98577.69
2022-10-07T23:00:20.210Z,98579.37
2022-10-07T23:02:48.511Z,98576.59
2022-10-07T23:05:17.395Z,98578.26
2022-10-07T23:07:45.410Z,98577.56
2022-10-07T23:10:13.798Z,98576.33
2022-10-07T23:12:42.756Z,98573.17
2022-10-07T23:15:10.934Z,98572.89
2022-10-07T23:17:38.984Z,98575.59
2022-10-07T23:20:09.875Z,98574.90
2022-10-07T23:22:44.144Z,98575.53
2022-10-07T23:25:13.267Z,98573.98
2022-10-07T23:27:42.178Z,98568.83
2022-10-07T23:30:11.867Z,98565.96
2022-10-07T23:32:39.919Z,98568.09
2022-10-07T23:35:09.043Z,98568.00
2022-10-07T23:37:37.231Z,98568.15
2022-10-07T23:40:06.106Z,98568.95
2022-10-07T23:42:35.704Z,98570.48
2022-10-07T23:45:03.842Z,98567.72
2022-10-07T23:47:31.889Z,98564.84
2022-10-07T23:50:00.110Z,98565.02
2022-10-07T23:52:28.259Z,98560.38
2022-10-07T23:54:56.102Z,98559.20
2022-10-07T23:57:23.973Z,98556.86
2022-10-07T23:59:52.235Z,98552.64
